Time;durP1;ratioP1;P1;durP2;ratioP2;P2;SDS_P1;SDS_P2;PMS_P1;PMS_P2;Temp;Humidity;BMP_temperature;BMP_pressure;BME280_temperature;BME280_humidity;BME280_pressure;Samples;Min_cycle;Max_cycle;Signal;HPM_P1;HPM_P2
2021/07/20 00:01:41;;;;;;;11.95;9.68;;;;;;;;;;5008852;28;20058;-80
2021/07/20 00:04:06;;;;;;;10.30;8.57;;;;;;;;;;4994292;28;20030;-80
2021/07/20 00:06:31;;;;;;;14.30;9.48;;;;;;;;;;4994137;28;20157;-80
2021/07/20 00:08:57;;;;;;;11.52;8.75;;;;;;;;;;5009786;28;20034;-80
2021/07/20 00:11:23;;;;;;;10.13;8.70;;;;;;;;;;5015434;28;20112;-80
2021/07/20 00:13:49;;;;;;;11.77;9.80;;;;;;;;;;4991486;28;20038;-80
2021/07/20 00:16:14;;;;;;;13.75;9.43;;;;;;;;;;5026389;28;20168;-80
2021/07/20 00:18:40;;;;;;;11.18;9.73;;;;;;;;;;5010307;28;20091;-80
2021/07/20 00:21:06;;;;;;;12.40;9.38;;;;;;;;;;5026401;28;20042;-80
2021/07/20 00:23:32;;;;;;;11.55;9.25;;;;;;;;;;5013304;28;20031;-80
2021/07/20 00:25:57;;;;;;;12.23;9.82;;;;;;;;;;5007898;28;20046;-79
2021/07/20 00:28:23;;;;;;;11.90;9.35;;;;;;;;;;4992863;28;20501;-79
2021/07/20 00:30:48;;;;;;;11.98;9.73;;;;;;;;;;5024517;28;20038;-80
2021/07/20 00:33:14;;;;;;;12.18;9.32;;;;;;;;;;5009688;28;20034;-80
2021/07/20 00:35:40;;;;;;;11.75;8.73;;;;;;;;;;5026770;28;20496;-79
2021/07/20 00:38:06;;;;;;;10.57;7.55;;;;;;;;;;5012341;28;20030;-80
2021/07/20 00:40:32;;;;;;;13.85;9.60;;;;;;;;;;4977552;28;20034;-80
2021/07/20 00:42:58;;;;;;;14.75;9.40;;;;;;;;;;4993751;28;20034;-80
2021/07/20 00:45:23;;;;;;;19.48;9.82;;;;;;;;;;5009772;28;20052;-80
2021/07/20 00:47:49;;;;;;;11.80;8.93;;;;;;;;;;4977549;28;20420;-80
2021/07/20 00:50:23;;;;;;;13.48;9.18;;;;;;;;;;4993052;28;20042;-80
2021/07/20 00:52:48;;;;;;;11.27;8.98;;;;;;;;;;4992840;28;20105;-80
2021/07/20 00:55:14;;;;;;;12.43;9.85;;;;;;;;;;5009720;28;20129;-80
2021/07/20 00:57:40;;;;;;;10.30;8.93;;;;;;;;;;5026163;28;20038;-79
2021/07/20 01:00:07;;;;;;;12.02;9.73;;;;;;;;;;5026184;28;20046;-80
2021/07/20 01:02:33;;;;;;;17.30;9.40;;;;;;;;;;5024391;28;20089;-79
2021/07/20 01:04:58;;;;;;;13.05;9.25;;;;;;;;;;4997328;28;20497;-80
2021/07/20 01:07:24;;;;;;;13.07;9.68;;;;;;;;;;5006660;28;20062;-79
2021/07/20 01:09:50;;;;;;;11.82;9.43;;;;;;;;;;5026522;28;20081;-80
2021/07/20 01:12:15;;;;;;;12.98;9.27;;;;;;;;;;5009328;28;20022;-79
2021/07/20 01:14:42;;;;;;;11.02;8.75;;;;;;;;;;5009213;28;20527;-79
2021/07/20 01:17:08;;;;;;;11.98;8.95;;;;;;;;;;4991652;28;20034;-80
2021/07/20 01:19:33;;;;;;;11.65;9.57;;;;;;;;;;4993416;28;20046;-79
2021/07/20 01:22:00;;;;;;;10.65;9.38;;;;;;;;;;4993758;28;20052;-80
2021/07/20 01:24:27;;;;;;;12.32;9.50;;;;;;;;;;4993136;28;20156;-80
2021/07/20 01:26:53;;;;;;;11.57;8.90;;;;;;;;;;4993241;28;20046;-79
2021/07/20 01:29:18;;;;;;;12.05;9.05;;;;;;;;;;5025742;28;20144;-80
2021/07/20 01:31:44;;;;;;;12.35;8.75;;;;;;;;;;5025887;28;20412;-80
2021/07/20 01:34:11;;;;;;;12.88;9.18;;;;;;;;;;5006650;28;20042;-80
2021/07/20 01:36:36;;;;;;;11.50;9.25;;;;;;;;;;5011579;28;20026;-80
2021/07/20 01:39:04;;;;;;;13.55;9.60;;;;;;;;;;5010970;28;20477;-80
2021/07/20 01:41:29;;;;;;;11.95;8.88;;;;;;;;;;4981829;28;20038;-79
2021/07/20 01:43:59;;;;;;;11.68;9.20;;;;;;;;;;5012648;28;20119;-80
2021/07/20 01:46:31;;;;;;;16.52;8.80;;;;;;;;;;4996275;28;20538;-79
2021/07/20 01:48:56;;;;;;;12.05;9.68;;;;;;;;;;5029349;28;20044;-80
2021/07/20 01:51:23;;;;;;;10.88;9.25;;;;;;;;;;5024269;28;20042;-80
2021/07/20 01:53:49;;;;;;;11.27;9.07;;;;;;;;;;5010346;28;20034;-80
2021/07/20 01:56:15;;;;;;;13.82;9.13;;;;;;;;;;4996595;28;20034;-80
2021/07/20 01:58:43;;;;;;;11.35;9.30;;;;;;;;;;4996565;28;20129;-80
2021/07/20 02:01:31;;;;;;;13.77;9.45;;;;;;;;;;4980227;28;20069;-80
2021/07/20 02:09:21;;;;;;;10.25;8.73;;;;;;;;;;4998783;28;20050;-80
2021/07/20 02:11:47;;;;;;;13.20;9.77;;;;;;;;;;4996294;28;20042;-80
2021/07/20 02:14:14;;;;;;;10.85;9.35;;;;;;;;;;4979765;28;20045;-80
2021/07/20 02:16:43;;;;;;;11.38;9.57;;;;;;;;;;5011772;28;20500;-79
2021/07/20 02:19:21;;;;;;;15.02;9.85;;;;;;;;;;5011984;28;20069;-80
2021/07/20 02:21:57;;;;;;;12.07;9.55;;;;;;;;;;5029138;28;20403;-80
2021/07/20 02:24:30;;;;;;;11.55;9.23;;;;;;;;;;5012116;28;20038;-80
2021/07/20 02:26:59;;;;;;;11.20;9.18;;;;;;;;;;5008989;28;20033;-80
2021/07/20 02:29:25;;;;;;;13.68;9.55;;;;;;;;;;4995612;28;20121;-80
2021/07/20 02:31:53;;;;;;;11.88;9.00;;;;;;;;;;5010279;28;20114;-80
2021/07/20 02:34:19;;;;;;;11.10;9.20;;;;;;;;;;4995182;28;20038;-79
2021/07/20 02:36:44;;;;;;;10.52;9.38;;;;;;;;;;4980418;28;20504;-80
2021/07/20 02:39:11;;;;;;;11.85;9.38;;;;;;;;;;5028134;28;20459;-80
2021/07/20 02:41:36;;;;;;;12.02;8.52;;;;;;;;;;5007355;28;20027;-80
2021/07/20 02:44:02;;;;;;;14.35;9.35;;;;;;;;;;5007745;28;20412;-80
2021/07/20 02:46:28;;;;;;;11.55;9.43;;;;;;;;;;5012176;28;20048;-80
2021/07/20 02:48:53;;;;;;;11.20;9.25;;;;;;;;;;4995510;28;20057;-80
2021/07/20 02:51:19;;;;;;;10.20;9.07;;;;;;;;;;4977753;28;20583;-80
2021/07/20 02:53:46;;;;;;;11.57;9.40;;;;;;;;;;5011852;28;20038;-80
2021/07/20 02:56:12;;;;;;;10.48;8.68;;;;;;;;;;4979018;28;20052;-80
2021/07/20 02:58:37;;;;;;;11.88;9.75;;;;;;;;;;4995877;28;20551;-80
2021/07/20 03:01:04;;;;;;;12.48;9.30;;;;;;;;;;4994419;28;20408;-80
2021/07/20 03:03:29;;;;;;;13.57;9.93;;;;;;;;;;5010204;28;20049;-80
2021/07/20 03:05:55;;;;;;;11.18;8.63;;;;;;;;;;5010475;28;20061;-80
2021/07/20 03:08:22;;;;;;;14.13;9.85;;;;;;;;;;5011708;28;20041;-80
2021/07/20 03:10:47;;;;;;;10.80;8.77;;;;;;;;;;5027438;28;20040;-80
2021/07/20 03:13:13;;;;;;;11.20;8.93;;;;;;;;;;5020552;28;20046;-80
2021/07/20 03:15:38;;;;;;;10.13;8.55;;;;;;;;;;5010603;28;20072;-80
2021/07/20 03:18:05;;;;;;;11.30;9.05;;;;;;;;;;5011553;28;20049;-80
2021/07/20 03:20:30;;;;;;;10.00;8.90;;;;;;;;;;5011572;28;20049;-80
2021/07/20 03:22:56;;;;;;;12.70;10.18;;;;;;;;;;5010952;28;20041;-80
2021/07/20 03:25:21;;;;;;;16.70;9.68;;;;;;;;;;4978539;28;20041;-80
2021/07/20 03:27:47;;;;;;;12.85;9.55;;;;;;;;;;4994712;28;20571;-80
2021/07/20 03:30:13;;;;;;;12.70;9.63;;;;;;;;;;4975436;28;20046;-80
2021/07/20 03:32:44;;;;;;;15.63;9.70;;;;;;;;;;5024008;28;20145;-80
2021/07/20 03:35:10;;;;;;;11.85;9.60;;;;;;;;;;5022417;28;20408;-80
2021/07/20 03:37:36;;;;;;;10.73;8.80;;;;;;;;;;5001573;28;20035;-80
2021/07/20 03:40:03;;;;;;;12.20;9.73;;;;;;;;;;4978192;28;20037;-80
2021/07/20 03:42:29;;;;;;;11.13;9.13;;;;;;;;;;4994766;28;20045;-80
2021/07/20 03:44:54;;;;;;;11.68;9.10;;;;;;;;;;5026985;28;20041;-80
2021/07/20 03:47:20;;;;;;;10.80;9.38;;;;;;;;;;5010467;28;20045;-80
2021/07/20 03:49:45;;;;;;;12.45;9.05;;;;;;;;;;4992968;28;20038;-80
2021/07/20 03:52:12;;;;;;;11.10;9.27;;;;;;;;;;5027255;28;20033;-80
2021/07/20 03:54:38;;;;;;;12.63;9.30;;;;;;;;;;5027408;28;20091;-80
2021/07/20 03:57:04;;;;;;;11.82;9.90;;;;;;;;;;5024945;28;20030;-79
2021/07/20 03:59:30;;;;;;;12.13;8.88;;;;;;;;;;4994260;28;20034;-80
2021/07/20 04:01:58;;;;;;;11.32;9.98;;;;;;;;;;4977208;28;20575;-80
2021/07/20 04:04:23;;;;;;;11.57;9.05;;;;;;;;;;4994234;28;20113;-80
2021/07/20 04:06:49;;;;;;;11.00;8.82;;;;;;;;;;5010171;28;20053;-80
2021/07/20 04:09:14;;;;;;;11.27;9.30;;;;;;;;;;5010340;28;20557;-80
2021/07/20 04:11:40;;;;;;;11.52;9.38;;;;;;;;;;4994219;28;20045;-80
2021/07/20 04:14:05;;;;;;;11.27;9.43;;;;;;;;;;4977569;28;20041;-80
2021/07/20 04:16:31;;;;;;;13.30;9.88;;;;;;;;;;4994420;28;20046;-80
2021/07/20 04:18:57;;;;;;;12.38;9.35;;;;;;;;;;5026558;28;20042;-81
2021/07/20 04:21:23;;;;;;;10.63;8.68;;;;;;;;;;5005053;28;20524;-85
2021/07/20 04:23:50;;;;;;;11.63;9.27;;;;;;;;;;5013098;28;20026;-85
2021/07/20 04:26:15;;;;;;;14.57;9.63;;;;;;;;;;5030800;28;20033;-87
2021/07/20 04:28:42;;;;;;;11.30;9.43;;;;;;;;;;5027661;28;20080;-86
2021/07/20 04:31:09;;;;;;;12.45;9.60;;;;;;;;;;5011273;28;20030;-86
2021/07/20 04:33:35;;;;;;;10.90;9.15;;;;;;;;;;5011109;28;20034;-86
2021/07/20 04:36:02;;;;;;;12.68;9.18;;;;;;;;;;5011353;28;20042;-85
2021/07/20 04:38:31;;;;;;;11.07;9.30;;;;;;;;;;5013898;28;20124;-85
2021/07/20 04:40:58;;;;;;;11.57;9.15;;;;;;;;;;5013826;28;20085;-85
2021/07/20 04:43:23;;;;;;;11.82;8.98;;;;;;;;;;5020053;28;20504;-85
2021/07/20 04:45:51;;;;;;;10.48;9.38;;;;;;;;;;4978238;28;20053;-85
2021/07/20 04:48:17;;;;;;;11.40;9.32;;;;;;;;;;5009601;28;20060;-85
2021/07/20 04:50:43;;;;;;;12.43;9.30;;;;;;;;;;4999924;28;20034;-84
2021/07/20 04:53:12;;;;;;;11.32;9.07;;;;;;;;;;5014259;28;20037;-84
2021/07/20 04:55:41;;;;;;;11.40;9.38;;;;;;;;;;4993917;28;20041;-84
2021/07/20 04:58:06;;;;;;;11.57;8.60;;;;;;;;;;4978402;28;20069;-84
2021/07/20 05:00:33;;;;;;;12.55;9.20;;;;;;;;;;5010383;28;20524;-84
2021/07/20 05:03:00;;;;;;;11.90;9.25;;;;;;;;;;5001674;28;20124;-84
2021/07/20 05:05:27;;;;;;;11.20;9.25;;;;;;;;;;5007370;28;20089;-84
2021/07/20 05:07:53;;;;;;;11.50;8.98;;;;;;;;;;4977741;28;20030;-84
2021/07/20 05:10:18;;;;;;;12.27;8.98;;;;;;;;;;4977853;28;20065;-84
2021/07/20 05:12:44;;;;;;;11.63;8.98;;;;;;;;;;5001842;28;20124;-84
2021/07/20 05:15:12;;;;;;;10.35;9.23;;;;;;;;;;4996113;28;20064;-84
2021/07/20 05:17:39;;;;;;;10.57;9.40;;;;;;;;;;5012786;28;20036;-84
2021/07/20 05:20:06;;;;;;;11.75;9.25;;;;;;;;;;4980789;28;20041;-84
2021/07/20 05:22:32;;;;;;;13.05;9.82;;;;;;;;;;4994744;28;20035;-84
2021/07/20 05:24:58;;;;;;;13.18;9.50;;;;;;;;;;5026510;28;20468;-84
2021/07/20 05:27:24;;;;;;;12.13;9.05;;;;;;;;;;5025748;28;20044;-84
2021/07/20 05:29:49;;;;;;;13.13;10.00;;;;;;;;;;5006543;28;20046;-84
2021/07/20 05:32:18;;;;;;;12.32;8.98;;;;;;;;;;4964987;28;20064;-85
2021/07/20 05:34:48;;;;;;;15.45;8.85;;;;;;;;;;5029385;28;20064;-83
2021/07/20 05:37:17;;;;;;;12.18;9.70;;;;;;;;;;5011061;28;20505;-84
2021/07/20 05:39:42;;;;;;;10.98;9.32;;;;;;;;;;5024926;28;20053;-84
2021/07/20 05:42:09;;;;;;;13.73;9.90;;;;;;;;;;5007703;28;20101;-84
2021/07/20 05:44:34;;;;;;;10.68;9.18;;;;;;;;;;5009838;28;20042;-84
2021/07/20 05:47:01;;;;;;;13.18;9.45;;;;;;;;;;5013046;28;20052;-83
2021/07/20 05:49:27;;;;;;;13.00;9.00;;;;;;;;;;5015414;28;20496;-84
2021/07/20 05:51:53;;;;;;;12.10;9.77;;;;;;;;;;5003434;28;20492;-84
2021/07/20 05:54:18;;;;;;;12.30;9.73;;;;;;;;;;5013144;28;20048;-83
2021/07/20 05:56:46;;;;;;;12.45;9.65;;;;;;;;;;5012566;28;20037;-83
2021/07/20 05:59:11;;;;;;;10.13;8.25;;;;;;;;;;5011273;28;20030;-84
2021/07/20 06:01:38;;;;;;;13.15;8.85;;;;;;;;;;5006069;28;20069;-83
2021/07/20 06:04:03;;;;;;;19.45;9.82;;;;;;;;;;5020007;28;20117;-83
2021/07/20 06:06:32;;;;;;;11.15;8.80;;;;;;;;;;5009193;28;20052;-84
2021/07/20 06:09:02;;;;;;;12.07;8.90;;;;;;;;;;4981043;28;20120;-83
2021/07/20 06:11:27;;;;;;;13.00;9.13;;;;;;;;;;4963901;28;20035;-84
2021/07/20 06:13:55;;;;;;;11.43;8.95;;;;;;;;;;4993421;28;20038;-85
2021/07/20 06:16:24;;;;;;;11.63;9.80;;;;;;;;;;5025227;28;20499;-85
2021/07/20 06:18:50;;;;;;;9.90;8.52;;;;;;;;;;5006903;28;20037;-84
2021/07/20 06:21:19;;;;;;;12.10;9.90;;;;;;;;;;4991443;28;20038;-84
2021/07/20 06:23:46;;;;;;;11.68;9.00;;;;;;;;;;5015547;28;20065;-84
2021/07/20 06:26:18;;;;;;;12.68;7.97;;;;;;;;;;5006878;28;20034;-84
2021/07/20 06:28:44;;;;;;;17.67;10.80;;;;;;;;;;5026675;28;20050;-84
2021/07/20 06:31:10;;;;;;;17.88;13.80;;;;;;;;;;5007911;28;20038;-84
2021/07/20 06:33:36;;;;;;;19.00;14.07;;;;;;;;;;5004481;28;20045;-84
2021/07/20 06:36:03;;;;;;;17.30;12.57;;;;;;;;;;4994427;28;20038;-85
2021/07/20 06:38:29;;;;;;;16.40;12.95;;;;;;;;;;5009551;28;20073;-84
2021/07/20 06:40:57;;;;;;;18.70;13.30;;;;;;;;;;5012029;28;20030;-84
2021/07/20 06:43:23;;;;;;;23.58;14.00;;;;;;;;;;4996045;28;20034;-85
2021/07/20 06:45:48;;;;;;;18.42;12.85;;;;;;;;;;4997526;28;20050;-84
2021/07/20 06:48:16;;;;;;;22.17;13.90;;;;;;;;;;4954621;28;20092;-84
2021/07/20 06:50:41;;;;;;;17.25;12.63;;;;;;;;;;5001719;28;20034;-84
2021/07/20 06:53:07;;;;;;;20.95;13.98;;;;;;;;;;5019715;28;20411;-84
2021/07/20 06:55:34;;;;;;;18.65;14.25;;;;;;;;;;5007083;28;20093;-84
2021/07/20 06:57:59;;;;;;;16.70;13.93;;;;;;;;;;5012422;28;20053;-84
2021/07/20 07:00:25;;;;;;;19.02;13.90;;;;;;;;;;5017033;28;20057;-84
2021/07/20 07:02:57;;;;;;;19.60;15.02;;;;;;;;;;4991394;28;20109;-84
2021/07/20 07:05:23;;;;;;;17.33;12.88;;;;;;;;;;4995027;28;20396;-84
2021/07/20 07:07:48;;;;;;;25.52;15.55;;;;;;;;;;4954052;28;20038;-84
2021/07/20 07:10:14;;;;;;;16.73;13.60;;;;;;;;;;4969030;28;20433;-84
2021/07/20 07:12:40;;;;;;;20.80;14.13;;;;;;;;;;5003443;28;20116;-85
2021/07/20 07:15:06;;;;;;;23.02;13.05;;;;;;;;;;5010913;28;20038;-85
2021/07/20 07:17:32;;;;;;;19.95;12.30;;;;;;;;;;4979349;28;20030;-85
2021/07/20 07:20:00;;;;;;;25.55;12.07;;;;;;;;;;4996555;28;20452;-84
2021/07/20 07:22:26;;;;;;;18.98;13.02;;;;;;;;;;4984707;28;20050;-84
2021/07/20 07:24:52;;;;;;;17.30;12.15;;;;;;;;;;4988546;28;20030;-84
2021/07/20 07:27:19;;;;;;;16.02;11.15;;;;;;;;;;5007045;28;20115;-84
2021/07/20 07:29:45;;;;;;;19.15;13.35;;;;;;;;;;4999665;28;20550;-84
2021/07/20 07:32:11;;;;;;;24.85;16.60;;;;;;;;;;4999991;28;20037;-84
2021/07/20 07:34:37;;;;;;;33.17;22.80;;;;;;;;;;5047907;28;20037;-84
2021/07/20 07:37:02;;;;;;;25.42;16.13;;;;;;;;;;5046294;28;20041;-84
2021/07/20 07:39:28;;;;;;;18.52;12.45;;;;;;;;;;5012229;28;20381;-84
2021/07/20 07:41:53;;;;;;;16.10;12.45;;;;;;;;;;5001102;28;20049;-84
2021/07/20 07:44:19;;;;;;;19.52;11.50;;;;;;;;;;4975287;28;20065;-84
2021/07/20 07:46:45;;;;;;;19.58;12.65;;;;;;;;;;4991139;28;20034;-83
2021/07/20 07:49:10;;;;;;;17.40;12.43;;;;;;;;;;4980869;28;20417;-83
2021/07/20 07:51:38;;;;;;;16.73;12.15;;;;;;;;;;5009637;28;20136;-83
2021/07/20 07:54:04;;;;;;;16.13;11.65;;;;;;;;;;4979585;28;20033;-84
2021/07/20 07:56:30;;;;;;;14.05;10.95;;;;;;;;;;4998433;28;20096;-83
2021/07/20 07:58:56;;;;;;;14.25;10.82;;;;;;;;;;5014340;28;20037;-83
2021/07/20 08:01:22;;;;;;;17.83;11.45;;;;;;;;;;4978889;28;20041;-84
2021/07/20 08:03:48;;;;;;;16.33;11.45;;;;;;;;;;5015780;28;20489;-83
2021/07/20 08:06:20;;;;;;;16.42;10.82;;;;;;;;;;5008729;28;20035;-83
2021/07/20 08:08:48;;;;;;;15.68;10.25;;;;;;;;;;5003887;28;20377;-83
2021/07/20 08:11:14;;;;;;;13.48;10.45;;;;;;;;;;4975002;28;20044;-83
2021/07/20 08:13:40;;;;;;;16.70;11.35;;;;;;;;;;5007646;28;20051;-83
2021/07/20 08:16:06;;;;;;;13.80;10.45;;;;;;;;;;4991802;28;20511;-83
2021/07/20 08:18:32;;;;;;;14.50;10.82;;;;;;;;;;4994408;28;20030;-83
2021/07/20 08:21:05;;;;;;;14.43;10.05;;;;;;;;;;5010596;28;20515;-83
2021/07/20 08:23:31;;;;;;;12.98;9.98;;;;;;;;;;5011011;28;20072;-84
2021/07/20 08:25:58;;;;;;;13.52;9.48;;;;;;;;;;5005555;28;20061;-84
2021/07/20 08:28:58;;;;;;;14.88;9.55;;;;;;;;;;4962047;28;20117;-84
2021/07/20 08:31:25;;;;;;;13.20;9.50;;;;;;;;;;5010760;28;20157;-84
2021/07/20 08:33:53;;;;;;;12.98;9.60;;;;;;;;;;5027380;28;20087;-84
2021/07/20 08:36:19;;;;;;;14.10;10.05;;;;;;;;;;5004560;28;20492;-84
2021/07/20 08:38:52;;;;;;;13.18;10.15;;;;;;;;;;5014220;28;20124;-83
2021/07/20 08:41:44;;;;;;;12.55;10.20;;;;;;;;;;4980161;28;20042;-83
2021/07/20 08:44:15;;;;;;;13.07;9.93;;;;;;;;;;5013330;28;20045;-83
2021/07/20 08:47:13;;;;;;;13.95;9.43;;;;;;;;;;5013990;28;20061;-84
2021/07/20 08:50:00;;;;;;;12.57;10.05;;;;;;;;;;5029244;28;20057;-84
2021/07/20 08:52:36;;;;;;;13.48;10.88;;;;;;;;;;5018994;28;20507;-84
2021/07/20 08:55:10;;;;;;;12.48;10.48;;;;;;;;;;4978841;28;20084;-84
2021/07/20 08:57:55;;;;;;;12.85;9.20;;;;;;;;;;5018152;28;20069;-84
2021/07/20 09:00:22;;;;;;;12.10;9.98;;;;;;;;;;4997905;28;20042;-84
2021/07/20 09:03:24;;;;;;;12.55;9.23;;;;;;;;;;4981748;28;20489;-84
2021/07/20 09:05:55;;;;;;;;;;;;;;;;;;5022312;28;20133;-84
2021/07/20 09:08:34;;;;;;;10.80;8.70;;;;;;;;;;4994128;28;19923;-84
2021/07/20 09:11:05;;;;;;;11.02;8.20;;;;;;;;;;5002839;28;20128;-84
2021/07/20 09:13:33;;;;;;;13.03;9.07;;;;;;;;;;5022865;28;20173;-84
2021/07/20 09:16:20;;;;;;;14.50;9.15;;;;;;;;;;5015737;28;20061;-84
2021/07/20 09:18:50;;;;;;;11.98;9.18;;;;;;;;;;5005923;28;20034;-84
2021/07/20 09:21:15;;;;;;;12.18;9.15;;;;;;;;;;5004259;28;20484;-83
2021/07/20 09:23:45;;;;;;;12.23;9.43;;;;;;;;;;5026897;28;20041;-84
2021/07/20 09:26:21;;;;;;;12.00;9.02;;;;;;;;;;4998251;28;20041;-83
2021/07/20 09:29:00;;;;;;;13.52;9.43;;;;;;;;;;5011748;28;20091;-84
2021/07/20 09:31:47;;;;;;;13.32;10.45;;;;;;;;;;4999036;28;20113;-83
2021/07/20 09:34:27;;;;;;;12.13;10.20;;;;;;;;;;5014489;28;20503;-84
2021/07/20 09:37:00;;;;;;;12.35;10.30;;;;;;;;;;5006073;28;20057;-83
2021/07/20 09:39:44;;;;;;;15.90;9.75;;;;;;;;;;5027281;28;20121;-84
2021/07/20 09:42:47;;;;;;;13.38;8.90;;;;;;;;;;5028926;28;20038;-84
2021/07/20 09:45:17;;;;;;;14.98;9.32;;;;;;;;;;5029560;28;20034;-83
2021/07/20 09:47:53;;;;;;;10.70;8.10;;;;;;;;;;5029828;28;20044;-83
2021/07/20 09:50:19;;;;;;;10.27;7.85;;;;;;;;;;4980346;28;20073;-83
2021/07/20 09:52:57;;;;;;;10.88;8.57;;;;;;;;;;5009784;28;20042;-82
2021/07/20 09:55:47;;;;;;;10.75;8.85;;;;;;;;;;5012732;28;20080;-80
2021/07/20 09:58:35;;;;;;;11.15;8.25;;;;;;;;;;5011298;28;20038;-79
2021/07/20 10:01:28;;;;;;;10.07;8.05;;;;;;;;;;5006760;28;20041;-79
2021/07/20 10:04:14;;;;;;;10.35;8.13;;;;;;;;;;4996081;28;20087;-78
2021/07/20 10:06:47;;;;;;;11.55;9.27;;;;;;;;;;5013445;28;20037;-78
2021/07/20 10:09:36;;;;;;;12.60;9.27;;;;;;;;;;5013304;28;20042;-79
2021/07/20 10:12:19;;;;;;;11.55;9.18;;;;;;;;;;4997974;28;20041;-79
2021/07/20 10:15:05;;;;;;;13.85;9.27;;;;;;;;;;4992169;28;20509;-79
2021/07/20 10:17:50;;;;;;;12.13;8.85;;;;;;;;;;4991160;28;20033;-79
2021/07/20 10:20:22;;;;;;;9.88;7.82;;;;;;;;;;5024887;28;20042;-80
2021/07/20 10:23:15;;;;;;;11.55;8.40;;;;;;;;;;5020726;28;20030;-81
2021/07/20 10:25:49;;;;;;;14.05;7.93;;;;;;;;;;4999368;28;20054;-79
2021/07/20 10:28:25;;;;;;;10.98;7.88;;;;;;;;;;5028931;28;20133;-78
2021/07/20 10:31:14;;;;;;;10.38;7.60;;;;;;;;;;4995969;28;20037;-79
2021/07/20 10:33:49;;;;;;;9.63;7.95;;;;;;;;;;5012240;28;20041;-79
2021/07/20 10:36:20;;;;;;;10.52;7.97;;;;;;;;;;5016706;28;20038;-79
2021/07/20 10:38:55;;;;;;;12.20;7.72;;;;;;;;;;5032689;28;20041;-79
2021/07/20 10:41:24;;;;;;;11.73;8.10;;;;;;;;;;5048706;28;20098;-78
2021/07/20 10:44:19;;;;;;;10.32;7.20;;;;;;;;;;4999325;28;20045;-79
2021/07/20 10:46:44;;;;;;;11.07;8.27;;;;;;;;;;5032953;28;20033;-79
2021/07/20 10:49:21;;;;;;;10.13;8.27;;;;;;;;;;5015665;28;20412;-79
2021/07/20 10:51:47;;;;;;;12.70;8.15;;;;;;;;;;5032252;28;20042;-79
2021/07/20 10:54:15;;;;;;;10.90;7.45;;;;;;;;;;5025896;28;20560;-79
2021/07/20 10:56:58;;;;;;;11.27;7.65;;;;;;;;;;5028683;28;20042;-79
2021/07/20 10:59:49;;;;;;;9.02;7.18;;;;;;;;;;5012869;28;20152;-80
2021/07/20 11:02:21;;;;;;;10.50;7.75;;;;;;;;;;5029141;28;20129;-80
2021/07/20 11:04:50;;;;;;;8.65;7.43;;;;;;;;;;4995742;28;20046;-79
2021/07/20 11:07:40;;;;;;;8.82;6.90;;;;;;;;;;5028629;28;20037;-80
2021/07/20 11:10:12;;;;;;;8.45;7.18;;;;;;;;;;4992120;28;20460;-79
2021/07/20 11:12:39;;;;;;;9.48;7.80;;;;;;;;;;5011165;28;20038;-80
2021/07/20 11:15:05;;;;;;;8.65;6.55;;;;;;;;;;4995773;28;20125;-80
2021/07/20 11:17:34;;;;;;;9.40;7.32;;;;;;;;;;4996130;28;20049;-80
2021/07/20 11:20:01;;;;;;;8.85;7.10;;;;;;;;;;4995752;28;20037;-80
2021/07/20 11:22:27;;;;;;;10.25;7.65;;;;;;;;;;4995905;28;20070;-80
2021/07/20 11:24:52;;;;;;;9.98;7.40;;;;;;;;;;5028033;28;20072;-79
2021/07/20 11:27:19;;;;;;;8.57;7.05;;;;;;;;;;5011630;28;20026;-79
2021/07/20 11:29:45;;;;;;;8.30;7.13;;;;;;;;;;5011936;28;20092;-80
2021/07/20 11:32:14;;;;;;;9.73;7.32;;;;;;;;;;4995365;28;20096;-79
2021/07/20 11:34:45;;;;;;;10.68;8.02;;;;;;;;;;4995527;28;20801;-80
2021/07/20 11:37:12;;;;;;;8.98;7.78;;;;;;;;;;5038533;28;20037;-80
2021/07/20 11:39:44;;;;;;;10.32;7.45;;;;;;;;;;5014955;28;20038;-79
2021/07/20 11:42:42;;;;;;;9.40;7.68;;;;;;;;;;5030652;28;20091;-79
2021/07/20 11:45:12;;;;;;;10.02;7.45;;;;;;;;;;5012480;28;20073;-80
2021/07/20 11:47:49;;;;;;;9.98;7.65;;;;;;;;;;5015838;28;20026;-80
2021/07/20 11:50:36;;;;;;;9.85;7.97;;;;;;;;;;4991553;28;20066;-80
2021/07/20 11:53:21;;;;;;;9.73;7.45;;;;;;;;;;5007902;28;20531;-79
2021/07/20 11:55:59;;;;;;;9.50;7.88;;;;;;;;;;4991434;28;20035;-79
2021/07/20 11:59:06;;;;;;;9.88;7.60;;;;;;;;;;5008082;28;20046;-79
2021/07/20 12:01:58;;;;;;;8.85;7.38;;;;;;;;;;4974853;28;20076;-80
2021/07/20 12:05:04;;;;;;;8.82;7.28;;;;;;;;;;4991109;28;20034;-80
2021/07/20 12:07:34;;;;;;;10.15;7.60;;;;;;;;;;4997828;28;20133;-80
2021/07/20 12:10:16;;;;;;;10.85;8.38;;;;;;;;;;4991326;28;20037;-80
2021/07/20 12:12:50;;;;;;;10.80;8.23;;;;;;;;;;4974646;28;20034;-79
2021/07/20 12:15:16;;;;;;;9.70;7.75;;;;;;;;;;4975007;28;20065;-80
2021/07/20 12:17:42;;;;;;;10.60;8.10;;;;;;;;;;4988242;28;20538;-80
2021/07/20 12:20:09;;;;;;;12.02;8.40;;;;;;;;;;5010872;28;20038;-80
2021/07/20 12:22:34;;;;;;;9.02;7.53;;;;;;;;;;5027178;28;20038;-79
2021/07/20 12:25:04;;;;;;;10.80;7.35;;;;;;;;;;5010659;28;20034;-80
2021/07/20 12:27:30;;;;;;;10.57;8.30;;;;;;;;;;5027407;28;20034;-80
2021/07/20 12:29:55;;;;;;;8.90;7.53;;;;;;;;;;5010731;28;20088;-80
2021/07/20 12:32:22;;;;;;;9.95;7.47;;;;;;;;;;4993855;28;20034;-79
2021/07/20 12:34:50;;;;;;;10.80;7.68;;;;;;;;;;5010756;28;20030;-80
2021/07/20 12:37:17;;;;;;;9.00;7.60;;;;;;;;;;5038562;28;20041;-80
2021/07/20 12:39:43;;;;;;;10.48;8.10;;;;;;;;;;5014093;28;20033;-80
2021/07/20 12:42:08;;;;;;;12.05;7.85;;;;;;;;;;5022763;28;20041;-79
2021/07/20 12:44:35;;;;;;;8.65;7.25;;;;;;;;;;4990698;28;20117;-80
2021/07/20 12:47:05;;;;;;;9.90;8.30;;;;;;;;;;4990602;28;20500;-80
2021/07/20 12:49:31;;;;;;;9.20;8.18;;;;;;;;;;5007351;28;20105;-80
2021/07/20 12:51:56;;;;;;;11.15;7.93;;;;;;;;;;4990631;28;20034;-80
2021/07/20 12:54:40;;;;;;;10.95;8.65;;;;;;;;;;5007365;28;20031;-80
2021/07/20 12:57:06;;;;;;;11.15;8.45;;;;;;;;;;5007135;28;20040;-79
2021/07/20 12:59:44;;;;;;;9.38;7.95;;;;;;;;;;4991012;28;20030;-80
2021/07/20 13:02:14;;;;;;;9.77;7.82;;;;;;;;;;5007021;28;20042;-80
2021/07/20 13:04:42;;;;;;;9.77;8.18;;;;;;;;;;5006076;28;20406;-79
2021/07/20 13:07:08;;;;;;;10.13;8.35;;;;;;;;;;5006946;28;20117;-80
2021/07/20 13:09:33;;;;;;;12.55;8.52;;;;;;;;;;4990535;28;20068;-80
2021/07/20 13:11:59;;;;;;;9.52;8.52;;;;;;;;;;4990640;28;20034;-80
2021/07/20 13:14:24;;;;;;;9.98;8.52;;;;;;;;;;5007418;28;20046;-79
2021/07/20 13:16:50;;;;;;;10.25;8.45;;;;;;;;;;4990621;28;20117;-80
2021/07/20 13:19:18;;;;;;;9.02;7.78;;;;;;;;;;4990386;28;20069;-79
2021/07/20 13:21:45;;;;;;;10.90;8.85;;;;;;;;;;4975286;28;20519;-79
2021/07/20 13:24:10;;;;;;;10.95;8.43;;;;;;;;;;4990787;28;20038;-80
2021/07/20 13:26:36;;;;;;;10.15;8.55;;;;;;;;;;4974432;28;20041;-79
2021/07/20 13:29:06;;;;;;;10.07;8.27;;;;;;;;;;4993693;28;20057;-80
2021/07/20 13:31:32;;;;;;;10.60;8.88;;;;;;;;;;4978100;28;20112;-79
2021/07/20 13:33:58;;;;;;;9.13;7.95;;;;;;;;;;5009665;28;20034;-79
2021/07/20 13:36:24;;;;;;;10.02;8.88;;;;;;;;;;5014733;28;20045;-80
2021/07/20 13:38:50;;;;;;;11.30;8.52;;;;;;;;;;5017097;28;20034;-80
2021/07/20 13:41:15;;;;;;;10.50;8.77;;;;;;;;;;5000589;28;20064;-80
2021/07/20 13:43:41;;;;;;;9.77;8.32;;;;;;;;;;5033503;28;20060;-79
2021/07/20 13:46:06;;;;;;;9.88;8.30;;;;;;;;;;5033334;28;20041;-80
2021/07/20 13:48:34;;;;;;;11.85;8.68;;;;;;;;;;4983934;28;20033;-80
2021/07/20 13:51:01;;;;;;;11.48;9.27;;;;;;;;;;5049950;28;20056;-80
2021/07/20 13:53:30;;;;;;;11.77;9.27;;;;;;;;;;5033013;28;20175;-80
2021/07/20 13:56:22;;;;;;;10.57;8.43;;;;;;;;;;5049792;28;20408;-80
2021/07/20 13:58:48;;;;;;;12.18;9.05;;;;;;;;;;5033199;28;20042;-80
2021/07/20 14:01:15;;;;;;;10.73;8.90;;;;;;;;;;5033254;28;20554;-80
2021/07/20 14:03:40;;;;;;;11.95;8.75;;;;;;;;;;5032209;28;20478;-80
2021/07/20 14:06:06;;;;;;;11.05;9.00;;;;;;;;;;5032380;28;20037;-80
2021/07/20 14:08:32;;;;;;;9.70;8.60;;;;;;;;;;5016625;28;20033;-80
2021/07/20 14:10:58;;;;;;;10.15;8.63;;;;;;;;;;5016153;28;20041;-80
2021/07/20 14:13:26;;;;;;;10.02;8.80;;;;;;;;;;5016039;28;20101;-80
2021/07/20 14:15:55;;;;;;;12.25;9.02;;;;;;;;;;5048698;28;20045;-80
2021/07/20 14:18:24;;;;;;;12.07;9.30;;;;;;;;;;5012660;28;20038;-80
2021/07/20 14:20:49;;;;;;;9.82;8.50;;;;;;;;;;5012762;28;20034;-79
2021/07/20 14:23:15;;;;;;;10.77;8.40;;;;;;;;;;5029264;28;20049;-79
2021/07/20 14:25:46;;;;;;;10.70;8.57;;;;;;;;;;5029522;28;20045;-80
2021/07/20 14:28:12;;;;;;;10.77;8.82;;;;;;;;;;5029201;28;20125;-80
2021/07/20 14:30:44;;;;;;;12.05;9.85;;;;;;;;;;5026121;28;20038;-80
2021/07/20 14:33:10;;;;;;;11.57;9.30;;;;;;;;;;5008998;28;20517;-80
2021/07/20 14:35:36;;;;;;;10.57;8.93;;;;;;;;;;5009668;28;20049;-79
2021/07/20 14:38:01;;;;;;;11.77;8.60;;;;;;;;;;5043611;28;20045;-80
2021/07/20 14:40:36;;;;;;;9.80;8.20;;;;;;;;;;5008526;28;20088;-80
2021/07/20 14:43:06;;;;;;;12.85;9.38;;;;;;;;;;5028818;28;20037;-79
2021/07/20 14:45:32;;;;;;;9.88;8.52;;;;;;;;;;5028876;28;20038;-80
2021/07/20 14:48:00;;;;;;;12.85;10.05;;;;;;;;;;5012125;28;20029;-80